Time;durP1;ratioP1;P1;durP2;ratioP2;P2;SDS_P1;SDS_P2;PMS_P1;PMS_P2;Temp;Humidity;BMP_temperature;BMP_pressure;BME280_temperature;BME280_humidity;BME280_pressure;Samples;Min_cycle;Max_cycle;Signal;HPM_P1;HPM_P2
2023/10/04 00:00:33;;;;;;;7.40;2.40;;;12.90;99.90;;;;;;5059279;28;20048;-73
2023/10/04 00:02:58;;;;;;;8.33;2.70;;;12.90;99.90;;;;;;5059501;28;20005;-72
2023/10/04 00:05:28;;;;;;;13.13;2.60;;;12.90;99.90;;;;;;5059777;28;20032;-74
2023/10/04 00:07:59;;;;;;;9.53;2.17;;;12.90;99.90;;;;;;5038260;28;20014;-72
2023/10/04 00:10:24;;;;;;;9.53;2.40;;;12.90;99.90;;;;;;5058568;28;20045;-73
2023/10/04 00:12:51;;;;;;;15.63;2.97;;;12.90;99.90;;;;;;5046020;28;20021;-73
2023/10/04 00:15:25;;;;;;;9.37;2.53;;;12.80;99.90;;;;;;5057725;28;20040;-73
2023/10/04 00:17:53;;;;;;;11.20;2.57;;;12.80;99.90;;;;;;5058410;28;20018;-74
2023/10/04 00:20:32;;;;;;;12.77;2.77;;;12.80;99.90;;;;;;5041674;28;20066;-73
2023/10/04 00:22:57;;;;;;;6.40;2.10;;;12.80;99.90;;;;;;5041933;28;20013;-72
2023/10/04 00:25:26;;;;;;;10.50;2.17;;;12.80;99.90;;;;;;5040015;28;20138;-73
2023/10/04 00:27:56;;;;;;;8.33;1.73;;;12.80;99.90;;;;;;5042392;28;20017;-74
2023/10/04 00:30:29;;;;;;;6.27;2.57;;;12.70;99.90;;;;;;5058301;28;20093;-73
2023/10/04 00:32:56;;;;;;;8.30;2.00;;;12.70;99.90;;;;;;5059619;28;20024;-74
2023/10/04 00:35:26;;;;;;;9.53;2.17;;;12.70;99.90;;;;;;5059550;28;20036;-73
2023/10/04 00:37:57;;;;;;;10.00;2.43;;;12.70;99.90;;;;;;5059202;28;20031;-72
2023/10/04 00:40:26;;;;;;;12.17;3.07;;;12.70;99.90;;;;;;5041857;28;20029;-73
2023/10/04 00:42:51;;;;;;;8.83;1.97;;;12.60;99.90;;;;;;5056783;28;20077;-74
2023/10/04 00:45:22;;;;;;;10.60;3.13;;;12.60;99.90;;;;;;5058875;28;20032;-73
2023/10/04 00:47:54;;;;;;;13.20;2.73;;;12.60;99.90;;;;;;5041302;28;20018;-72
2023/10/04 00:50:26;;;;;;;14.37;3.17;;;12.60;99.90;;;;;;5041543;28;20029;-73
2023/10/04 00:53:08;;;;;;;14.77;3.17;;;12.60;99.90;;;;;;5059300;28;20024;-74
2023/10/04 00:55:43;;;;;;;17.73;2.87;;;12.60;99.90;;;;;;5057618;28;20029;-73
2023/10/04 00:58:11;;;;;;;10.70;2.57;;;12.50;99.90;;;;;;5060222;28;20260;-73
2023/10/04 01:00:44;;;;;;;9.47;2.67;;;12.50;99.90;;;;;;5056913;28;20114;-73
2023/10/04 01:03:11;;;;;;;10.80;2.40;;;12.60;99.90;;;;;;5041813;28;20021;-73
2023/10/04 01:05:45;;;;;;;9.50;2.37;;;12.50;99.90;;;;;;5039944;28;20036;-73
2023/10/04 01:08:12;;;;;;;6.13;1.90;;;12.50;99.90;;;;;;5058350;28;20018;-72
2023/10/04 01:10:38;;;;;;;13.90;2.23;;;12.50;99.90;;;;;;5058497;28;20092;-73
2023/10/04 01:13:09;;;;;;;9.63;1.90;;;12.50;99.90;;;;;;5039956;28;20042;-72
2023/10/04 01:15:39;;;;;;;6.97;2.93;;;12.50;99.90;;;;;;5058017;28;20017;-73
2023/10/04 01:18:05;;;;;;;11.13;2.67;;;12.50;99.90;;;;;;5059040;28;20036;-72
2023/10/04 01:20:33;;;;;;;10.03;2.70;;;12.50;99.90;;;;;;5056122;28;20026;-73
2023/10/04 01:23:00;;;;;;;14.63;2.13;;;12.50;99.90;;;;;;5058782;28;20035;-73
2023/10/04 01:25:31;;;;;;;8.63;2.07;;;12.50;99.90;;;;;;5041850;28;20025;-72
2023/10/04 01:28:01;;;;;;;9.63;2.30;;;12.50;99.90;;;;;;5057779;28;20045;-73
2023/10/04 01:30:27;;;;;;;8.47;1.80;;;12.50;99.90;;;;;;5058142;28;20052;-72
2023/10/04 01:32:59;;;;;;;10.47;2.00;;;12.50;99.90;;;;;;5040642;28;20013;-72
2023/10/04 01:35:27;;;;;;;8.18;2.90;;;12.50;99.90;;;;;;5038956;28;20032;-73
2023/10/04 01:37:53;;;;;;;9.07;3.07;;;12.40;99.90;;;;;;5058582;28;20033;-72
2023/10/04 01:40:25;;;;;;;13.27;2.43;;;12.50;99.90;;;;;;5056715;28;20101;-74
2023/10/04 01:42:52;;;;;;;11.18;2.60;;;12.50;99.90;;;;;;5057022;28;20043;-74
2023/10/04 01:45:21;;;;;;;9.23;2.07;;;12.40;99.90;;;;;;5059113;28;20029;-73
2023/10/04 01:47:47;;;;;;;8.40;1.90;;;12.40;99.90;;;;;;5036914;28;20037;-73
2023/10/04 01:50:15;;;;;;;16.10;2.83;;;12.50;99.90;;;;;;5036871;28;20055;-74
2023/10/04 01:52:47;;;;;;;14.63;2.50;;;12.50;99.90;;;;;;5058113;28;20021;-72
2023/10/04 01:55:16;;;;;;;16.40;2.35;;;12.50;99.90;;;;;;5056887;28;20022;-72
2023/10/04 01:57:45;;;;;;;12.57;2.50;;;12.40;99.90;;;;;;5058369;28;20036;-74
2023/10/04 02:00:18;;;;;;;11.97;1.90;;;12.50;99.90;;;;;;5041611;28;20037;-77
2023/10/04 02:02:47;;;;;;;9.88;1.92;;;12.50;99.90;;;;;;5057060;28;20040;-73
2023/10/04 02:05:17;;;;;;;13.67;2.67;;;12.60;99.90;;;;;;5058508;28;20022;-72
2023/10/04 02:07:46;;;;;;;9.13;2.07;;;12.50;99.90;;;;;;5056867;28;20018;-72
2023/10/04 02:10:14;;;;;;;14.47;2.73;;;12.50;99.90;;;;;;5056566;28;20041;-73
2023/10/04 02:12:45;;;;;;;12.20;1.97;;;12.50;99.90;;;;;;5058036;28;20025;-73
2023/10/04 02:15:15;;;;;;;14.77;2.37;;;12.50;99.90;;;;;;5057370;28;20032;-72
2023/10/04 02:17:44;;;;;;;11.30;2.50;;;12.50;99.90;;;;;;5038991;28;20041;-73
2023/10/04 02:20:25;;;;;;;16.20;2.97;;;12.50;99.90;;;;;;5040567;28;20032;-72
2023/10/04 02:22:51;;;;;;;8.50;1.70;;;12.50;99.90;;;;;;5058240;28;20033;-73
2023/10/04 02:25:19;;;;;;;7.83;1.97;;;12.50;99.90;;;;;;5038717;28;20048;-73
2023/10/04 02:27:52;;;;;;;10.03;2.53;;;12.50;99.90;;;;;;5057582;28;20025;-74
2023/10/04 02:30:23;;;;;;;7.93;1.80;;;12.50;99.90;;;;;;5038683;28;20279;-73
2023/10/04 02:32:50;;;;;;;8.03;2.27;;;12.60;99.90;;;;;;5040071;28;20022;-73
2023/10/04 02:35:35;;;;;;;12.43;2.30;;;12.60;99.90;;;;;;5057376;28;20048;-72
2023/10/04 02:38:16;;;;;;;9.63;2.27;;;12.60;99.90;;;;;;5038061;28;20037;-72
2023/10/04 02:40:43;;;;;;;11.13;1.87;;;12.60;99.90;;;;;;5056700;28;20085;-73
2023/10/04 02:43:12;;;;;;;7.30;2.60;;;12.60;99.90;;;;;;5037252;28;20036;-73
2023/10/04 02:45:41;;;;;;;11.00;1.93;;;12.60;99.90;;;;;;5053479;28;20010;-73
2023/10/04 02:48:10;;;;;;;10.50;2.20;;;12.60;99.90;;;;;;5053194;28;20006;-73
2023/10/04 02:50:39;;;;;;;5.47;1.83;;;12.60;99.90;;;;;;5052937;28;20038;-73
2023/10/04 02:53:08;;;;;;;9.07;1.90;;;12.60;99.90;;;;;;5035211;28;20052;-75
2023/10/04 02:55:34;;;;;;;9.40;2.20;;;12.60;99.90;;;;;;5032133;28;20020;-73
2023/10/04 02:58:05;;;;;;;11.77;2.00;;;12.60;99.90;;;;;;5048140;28;20042;-72
2023/10/04 03:00:31;;;;;;;11.03;1.80;;;12.60;99.90;;;;;;5052057;28;20026;-72
2023/10/04 03:02:56;;;;;;;10.80;2.87;;;12.60;99.90;;;;;;5035890;28;20006;-73
2023/10/04 03:05:23;;;;;;;16.67;2.07;;;12.60;99.90;;;;;;5052533;28;20017;-73
2023/10/04 03:07:55;;;;;;;11.47;2.33;;;12.60;99.90;;;;;;5052337;28;20022;-73
2023/10/04 03:10:24;;;;;;;12.73;1.92;;;12.60;99.90;;;;;;5052346;28;20033;-73
2023/10/04 03:12:56;;;;;;;12.53;1.70;;;12.60;99.90;;;;;;5035339;28;20010;-73
2023/10/04 03:15:23;;;;;;;8.05;1.90;;;12.60;99.90;;;;;;5054288;28;20021;-73
2023/10/04 03:17:53;;;;;;;10.30;2.43;;;12.60;99.90;;;;;;5035923;28;20037;-75
2023/10/04 03:20:23;;;;;;;6.87;1.50;;;12.60;99.90;;;;;;5056335;28;20030;-74
2023/10/04 03:22:55;;;;;;;10.43;2.30;;;12.60;99.90;;;;;;5054812;28;20032;-75
2023/10/04 03:25:24;;;;;;;13.88;2.13;;;12.60;99.90;;;;;;5055332;28;20033;-73
2023/10/04 03:27:50;;;;;;;6.53;1.73;;;12.60;99.90;;;;;;5056119;28;20021;-73
2023/10/04 03:30:16;;;;;;;15.73;2.03;;;12.60;99.90;;;;;;5055120;28;20044;-73
2023/10/04 03:32:51;;;;;;;10.37;2.33;;;12.60;99.90;;;;;;5039380;28;20021;-73
2023/10/04 03:35:20;;;;;;;12.03;2.07;;;12.60;99.90;;;;;;5036478;28;20017;-73
2023/10/04 03:37:54;;;;;;;14.17;3.33;;;12.60;99.90;;;;;;5056693;28;20014;-73
2023/10/04 03:40:24;;;;;;;9.90;2.00;;;12.60;99.90;;;;;;5038788;28;20025;-72
2023/10/04 03:42:52;;;;;;;8.87;2.87;;;12.60;99.90;;;;;;5056087;28;20014;-72
2023/10/04 03:45:18;;;;;;;13.03;2.20;;;12.60;99.90;;;;;;5056784;28;20079;-73
2023/10/04 03:47:47;;;;;;;9.83;2.33;;;12.60;99.90;;;;;;5039880;28;20093;-73
2023/10/04 03:50:17;;;;;;;7.13;1.60;;;12.60;99.90;;;;;;5056449;28;20068;-73
2023/10/04 03:52:43;;;;;;;8.83;2.27;;;12.60;99.90;;;;;;5041386;28;20025;-73
2023/10/04 03:55:09;;;;;;;9.53;3.20;;;12.60;99.90;;;;;;5055870;28;20036;-73
2023/10/04 03:57:38;;;;;;;12.70;2.47;;;12.60;99.90;;;;;;5040084;28;20021;-74
2023/10/04 04:00:10;;;;;;;11.53;2.53;;;12.60;99.90;;;;;;5038484;28;20040;-73
2023/10/04 04:02:36;;;;;;;12.03;2.13;;;12.60;99.90;;;;;;5038591;28;20048;-73
2023/10/04 04:05:05;;;;;;;8.63;2.13;;;12.60;99.90;;;;;;5040110;28;20021;-73
2023/10/04 04:07:31;;;;;;;19.93;2.97;;;12.60;99.90;;;;;;5055254;28;20036;-73
2023/10/04 04:09:56;;;;;;;11.73;2.70;;;12.50;99.90;;;;;;5038524;28;20029;-73
2023/10/04 04:12:25;;;;;;;7.67;1.97;;;12.50;99.90;;;;;;5059194;28;20029;-73
2023/10/04 04:14:53;;;;;;;8.57;2.03;;;12.50;99.90;;;;;;5041833;28;20063;-73
2023/10/04 04:17:22;;;;;;;8.43;2.27;;;12.50;99.90;;;;;;5058720;28;20044;-73
2023/10/04 04:19:49;;;;;;;8.93;2.30;;;12.50;99.90;;;;;;5059794;28;20033;-72
2023/10/04 04:22:17;;;;;;;17.23;2.93;;;12.50;99.90;;;;;;5041400;28;20029;-73
2023/10/04 04:24:48;;;;;;;7.97;2.10;;;12.40;99.90;;;;;;5039761;28;20009;-73
2023/10/04 04:27:18;;;;;;;9.83;2.03;;;12.40;99.90;;;;;;5060226;28;20033;-73
2023/10/04 04:29:44;;;;;;;13.73;2.07;;;12.40;99.90;;;;;;5059250;28;20030;-73
2023/10/04 04:32:10;;;;;;;15.33;2.80;;;12.40;99.90;;;;;;5058937;28;20036;-73
2023/10/04 04:34:41;;;;;;;8.60;2.07;;;12.40;99.90;;;;;;5059041;28;20077;-74
2023/10/04 04:37:08;;;;;;;8.20;1.67;;;12.30;99.90;;;;;;5040409;28;20017;-74
2023/10/04 04:39:34;;;;;;;14.60;2.30;;;12.30;99.90;;;;;;5044224;28;20020;-73
2023/10/04 04:42:00;;;;;;;10.60;2.47;;;12.30;99.90;;;;;;5038740;28;20033;-73
2023/10/04 04:44:35;;;;;;;13.33;2.60;;;12.20;99.90;;;;;;5041503;28;20028;-73
2023/10/04 04:47:08;;;;;;;12.77;2.93;;;12.20;99.90;;;;;;5083810;22;20071;-73
2023/10/04 04:49:44;;;;;;;8.70;2.13;;;12.20;99.90;;;;;;5071262;28;20021;-72
2023/10/04 04:52:09;;;;;;;15.47;2.87;;;12.10;99.90;;;;;;5053737;28;20036;-73
2023/10/04 04:54:38;;;;;;;10.97;2.70;;;12.10;99.90;;;;;;5070813;28;20017;-73
2023/10/04 04:57:05;;;;;;;9.30;2.60;;;12.10;99.90;;;;;;5066879;28;20013;-76
2023/10/04 04:59:31;;;;;;;10.67;1.97;;;12.10;99.90;;;;;;5069283;28;20020;-74
2023/10/04 05:01:57;;;;;;;13.13;1.90;;;12.10;99.90;;;;;;5069884;28;20071;-75
2023/10/04 05:04:23;;;;;;;9.53;2.43;;;12.00;99.90;;;;;;5069703;28;20017;-75
2023/10/04 05:06:51;;;;;;;11.93;2.27;;;12.00;99.90;;;;;;5070660;28;20096;-74
2023/10/04 05:09:19;;;;;;;8.57;2.13;;;12.00;99.90;;;;;;5069124;28;20037;-73
2023/10/04 05:11:47;;;;;;;13.67;2.40;;;12.00;99.90;;;;;;5051298;28;20021;-74
2023/10/04 05:14:13;;;;;;;18.73;2.27;;;12.00;99.90;;;;;;5070639;28;20031;-73
2023/10/04 05:16:38;;;;;;;16.50;2.43;;;11.90;99.90;;;;;;5071514;28;20029;-75
2023/10/04 05:19:04;;;;;;;11.53;2.47;;;11.90;99.90;;;;;;5071348;28;20013;-74
2023/10/04 05:21:32;;;;;;;11.47;3.20;;;11.90;99.90;;;;;;5069979;28;20115;-73
2023/10/04 05:24:05;;;;;;;11.67;2.57;;;11.90;99.90;;;;;;5070458;28;20048;-74
2023/10/04 05:26:32;;;;;;;12.27;2.37;;;11.80;99.90;;;;;;5071261;28;20093;-74
2023/10/04 05:29:07;;;;;;;14.20;2.50;;;11.80;99.90;;;;;;5051050;28;20021;-77
2023/10/04 05:31:40;;;;;;;14.80;2.40;;;11.90;99.90;;;;;;5055436;28;20098;-73
2023/10/04 05:34:05;;;;;;;7.73;2.00;;;11.80;99.90;;;;;;5053506;28;20064;-73
2023/10/04 05:36:34;;;;;;;18.37;2.67;;;11.80;99.90;;;;;;5052856;28;20033;-75
2023/10/04 05:39:26;;;;;;;13.23;2.50;;;11.80;99.90;;;;;;5069582;28;20021;-74
2023/10/04 05:41:52;;;;;;;8.95;2.88;;;11.80;99.90;;;;;;5050287;28;20045;-78
2023/10/04 05:44:19;;;;;;;10.37;3.00;;;11.90;99.90;;;;;;5062099;28;20084;-73
2023/10/04 05:46:48;;;;;;;11.53;2.50;;;11.80;99.90;;;;;;5069784;28;20037;-74
2023/10/04 05:49:16;;;;;;;19.97;2.90;;;11.80;99.90;;;;;;5066192;28;20033;-74
2023/10/04 05:51:44;;;;;;;16.23;2.60;;;11.80;99.90;;;;;;5067238;28;20040;-75
2023/10/04 05:54:10;;;;;;;21.33;3.63;;;11.70;99.90;;;;;;5066723;28;20036;-73
2023/10/04 05:56:39;;;;;;;7.73;2.17;;;11.70;99.90;;;;;;5069689;28;20034;-74
2023/10/04 05:59:10;;;;;;;13.93;2.67;;;11.70;99.90;;;;;;5056580;28;20085;-75
2023/10/04 06:01:38;;;;;;;14.93;3.47;;;11.70;99.90;;;;;;5051989;28;20040;-74
2023/10/04 06:04:10;;;;;;;15.33;3.73;;;11.80;99.90;;;;;;5067393;28;20029;-74
2023/10/04 06:06:36;;;;;;;10.70;2.97;;;11.80;99.90;;;;;;5068453;28;20017;-74
2023/10/04 06:09:03;;;;;;;8.97;2.40;;;11.70;99.90;;;;;;5049362;28;20024;-77
2023/10/04 06:11:29;;;;;;;9.77;2.33;;;11.70;99.90;;;;;;5067367;28;20022;-73
2023/10/04 06:13:55;;;;;;;14.17;3.57;;;11.80;99.90;;;;;;5065689;28;20092;-74
2023/10/04 06:16:21;;;;;;;15.37;3.10;;;11.70;99.90;;;;;;5053266;28;20037;-73
2023/10/04 06:18:52;;;;;;;6.83;2.00;;;11.70;99.90;;;;;;5068438;28;20248;-75
2023/10/04 06:21:25;;;;;;;7.97;2.50;;;11.80;99.90;;;;;;5049889;28;20013;-73
2023/10/04 06:23:53;;;;;;;15.03;2.83;;;11.70;99.90;;;;;;5053010;28;20032;-75
2023/10/04 06:26:18;;;;;;;18.40;3.10;;;11.70;99.90;;;;;;5067645;28;20041;-73
2023/10/04 06:28:46;;;;;;;8.23;2.87;;;11.70;99.90;;;;;;5067540;28;20068;-75
2023/10/04 06:31:11;;;;;;;17.27;2.67;;;11.80;99.90;;;;;;5069158;28;20040;-74
2023/10/04 06:33:37;;;;;;;15.77;3.13;;;11.80;99.90;;;;;;5050251;28;20048;-77
2023/10/04 06:36:02;;;;;;;7.70;2.90;;;11.80;99.90;;;;;;5064791;28;20048;-74
2023/10/04 06:38:28;;;;;;;10.60;2.40;;;11.90;99.90;;;;;;5051975;28;20052;-73
2023/10/04 06:40:53;;;;;;;12.07;2.77;;;11.90;99.90;;;;;;5050191;28;20017;-74
2023/10/04 06:43:21;;;;;;;12.47;2.37;;;11.90;99.90;;;;;;5069051;28;20025;-73
2023/10/04 06:45:47;;;;;;;14.13;2.87;;;11.90;99.90;;;;;;5067578;28;20052;-73
2023/10/04 06:48:15;;;;;;;11.53;2.60;;;12.00;99.90;;;;;;5069016;28;20017;-74
2023/10/04 06:50:40;;;;;;;9.07;2.57;;;12.00;99.90;;;;;;5066197;28;20059;-74
2023/10/04 06:53:06;;;;;;;16.20;3.37;;;12.00;99.90;;;;;;5050641;28;20017;-73
2023/10/04 06:55:37;;;;;;;19.77;3.53;;;12.00;99.90;;;;;;5068557;28;20032;-73
2023/10/04 06:58:02;;;;;;;13.83;2.67;;;12.00;99.90;;;;;;5053919;28;20021;-74
2023/10/04 07:00:30;;;;;;;12.13;2.93;;;12.20;99.90;;;;;;5066330;28;20041;-74
2023/10/04 07:02:59;;;;;;;6.57;2.50;;;12.20;99.90;;;;;;5052212;28;20045;-76
2023/10/04 07:05:27;;;;;;;13.43;3.10;;;12.30;99.90;;;;;;5067644;28;20017;-73
2023/10/04 07:07:54;;;;;;;12.53;2.97;;;12.30;99.90;;;;;;5053491;28;20028;-73
2023/10/04 07:10:21;;;;;;;10.37;2.57;;;12.30;99.90;;;;;;5068685;28;20075;-73
2023/10/04 07:12:48;;;;;;;20.53;3.00;;;12.30;99.90;;;;;;5067146;28;20021;-74
2023/10/04 07:15:14;;;;;;;10.13;2.80;;;12.30;99.90;;;;;;5056532;28;20040;-73
2023/10/04 07:17:42;;;;;;;10.47;3.00;;;12.40;99.90;;;;;;5051848;28;20013;-73
2023/10/04 07:20:14;;;;;;;16.00;3.63;;;12.40;99.90;;;;;;5046679;28;20036;-73
2023/10/04 07:22:47;;;;;;;12.53;3.50;;;12.50;99.90;;;;;;5067451;28;20078;-73
2023/10/04 07:25:18;;;;;;;15.87;3.20;;;12.50;99.90;;;;;;5067926;28;21508;-73
2023/10/04 07:27:45;;;;;;;13.13;2.90;;;12.50;99.90;;;;;;5053119;28;20025;-73
2023/10/04 07:30:14;;;;;;;13.03;3.50;;;12.50;99.90;;;;;;5048945;28;20029;-73
2023/10/04 07:32:44;;;;;;;11.63;3.00;;;12.60;99.90;;;;;;5066609;28;20024;-74
2023/10/04 07:35:16;;;;;;;9.23;2.40;;;12.60;99.90;;;;;;5066247;28;20041;-73
2023/10/04 07:37:45;;;;;;;15.15;2.90;;;12.70;99.90;;;;;;5065447;28;20079;-73
2023/10/04 07:40:14;;;;;;;18.03;4.50;;;12.70;99.90;;;;;;5065867;28;20085;-75
2023/10/04 07:42:42;;;;;;;20.42;2.80;;;12.70;99.90;;;;;;5051309;28;20026;-73
2023/10/04 07:45:10;;;;;;;21.30;3.60;;;12.80;99.90;;;;;;5066646;28;20029;-73
2023/10/04 07:47:37;;;;;;;16.07;3.30;;;12.80;99.90;;;;;;5071121;28;20045;-72
2023/10/04 07:50:10;;;;;;;16.63;3.57;;;12.80;99.90;;;;;;5052887;28;20025;-72
2023/10/04 07:52:40;;;;;;;19.00;4.93;;;12.90;99.90;;;;;;5053333;28;20025;-74
2023/10/04 07:55:08;;;;;;;12.23;2.90;;;13.00;99.90;;;;;;5070999;28;20097;-73
2023/10/04 07:57:37;;;;;;;16.83;2.50;;;13.00;99.90;;;;;;5057175;28;20022;-72
2023/10/04 08:00:04;;;;;;;12.50;2.70;;;13.00;99.90;;;;;;5054022;28;20013;-72
2023/10/04 08:02:30;;;;;;;14.20;2.53;;;13.10;99.90;;;;;;5054135;28;20025;-73
2023/10/04 08:04:56;;;;;;;11.77;2.70;;;13.10;99.90;;;;;;5068415;28;20036;-72
2023/10/04 08:07:24;;;;;;;7.50;2.70;;;13.10;99.90;;;;;;5058983;28;20044;-73
2023/10/04 08:09:52;;;;;;;12.82;3.20;;;13.10;99.90;;;;;;5052458;28;20027;-73
2023/10/04 08:12:19;;;;;;;15.47;3.57;;;13.20;99.90;;;;;;5069424;28;20025;-72
2023/10/04 08:14:50;;;;;;;14.30;2.80;;;13.20;99.90;;;;;;5068884;28;20025;-72
2023/10/04 08:17:19;;;;;;;8.30;2.00;;;13.30;99.90;;;;;;5068808;28;20049;-72
2023/10/04 08:19:45;;;;;;;13.70;2.97;;;13.30;99.90;;;;;;5069427;28;20049;-72
2023/10/04 08:22:15;;;;;;;11.87;3.03;;;13.40;99.90;;;;;;5068490;28;20001;-71
2023/10/04 08:24:42;;;;;;;15.32;3.88;;;13.50;99.90;;;;;;5050252;28;20059;-73
2023/10/04 08:27:09;;;;;;;10.07;2.77;;;13.50;99.90;;;;;;5069641;28;20508;-72
2023/10/04 08:29:36;;;;;;;14.70;3.67;;;13.50;99.90;;;;;;5068210;28;20064;-73
2023/10/04 08:32:03;;;;;;;20.13;3.15;;;13.60;99.90;;;;;;5068029;28;20028;-72
2023/10/04 08:34:31;;;;;;;11.13;2.47;;;13.60;99.90;;;;;;5050327;28;20043;-72
2023/10/04 08:37:01;;;;;;;17.25;2.65;;;13.70;99.90;;;;;;5070876;28;20144;-77
2023/10/04 08:39:26;;;;;;;8.90;2.40;;;13.70;99.90;;;;;;5051948;28;20021;-73
2023/10/04 08:41:52;;;;;;;14.45;2.85;;;13.80;99.90;;;;;;5069719;28;20028;-73
2023/10/04 08:44:18;;;;;;;13.52;2.60;;;13.90;99.90;;;;;;5055249;28;20036;-73
2023/10/04 08:46:46;;;;;;;10.35;3.28;;;13.90;99.90;;;;;;5070386;28;20061;-72
2023/10/04 08:49:19;;;;;;;17.35;3.88;;;13.90;99.90;;;;;;5053035;28;20014;-72
2023/10/04 08:52:00;;;;;;;10.77;2.20;;;14.00;99.90;;;;;;5069895;28;20028;-72
2023/10/04 08:54:27;;;;;;;12.93;3.33;;;14.00;99.90;;;;;;5054857;28;20029;-73
2023/10/04 08:56:59;;;;;;;11.88;2.65;;;14.10;99.90;;;;;;5060097;28;20279;-72
2023/10/04 08:59:27;;;;;;;14.68;2.50;;;14.10;99.90;;;;;;5055067;28;20025;-72
2023/10/04 09:01:54;;;;;;;11.32;2.88;;;14.20;99.90;;;;;;5070751;28;20025;-72
2023/10/04 09:04:24;;;;;;;31.08;14.52;;;14.20;99.90;;;;;;5069678;28;20036;-76
2023/10/04 09:06:55;;;;;;;11.25;2.25;;;14.30;99.90;;;;;;5071543;28;20033;-73
2023/10/04 09:09:31;;;;;;;12.98;3.10;;;14.30;99.90;;;;;;5052928;28;20025;-72
2023/10/04 09:11:57;;;;;;;14.73;3.28;;;14.40;99.90;;;;;;5069437;28;20036;-72
2023/10/04 09:14:22;;;;;;;12.43;3.13;;;14.40;99.90;;;;;;5050726;28;20096;-71
2023/10/04 09:17:14;;;;;;;15.43;2.70;;;14.50;99.90;;;;;;5049028;28;20024;-73
2023/10/04 09:19:40;;;;;;;7.43;2.20;;;14.50;99.90;;;;;;5068899;28;20021;-73
2023/10/04 09:22:07;;;;;;;17.55;2.85;;;14.60;99.90;;;;;;5049598;28;20096;-72
2023/10/04 09:24:57;;;;;;;15.43;3.15;;;14.60;99.90;;;;;;5048617;28;20017;-72
2023/10/04 09:27:23;;;;;;;13.20;2.85;;;14.70;99.90;;;;;;5049368;28;20024;-72
2023/10/04 09:29:54;;;;;;;8.40;1.90;;;14.70;99.90;;;;;;5053360;28;20344;-73
2023/10/04 09:32:42;;;;;;;17.35;3.85;;;14.70;99.90;;;;;;5067430;28;20040;-75
2023/10/04 09:35:13;;;;;;;13.70;3.03;;;14.80;99.90;;;;;;5048258;28;20092;-74
2023/10/04 09:37:44;;;;;;;12.10;2.83;;;14.90;99.90;;;;;;5068159;28;20040;-74
2023/10/04 09:40:12;;;;;;;13.55;3.08;;;15.00;99.90;;;;;;5051403;28;20043;-75
2023/10/04 09:42:51;;;;;;;13.35;2.78;;;15.10;99.90;;;;;;5048567;28;20040;-74
2023/10/04 09:45:20;;;;;;;9.23;1.95;;;15.10;99.90;;;;;;5052902;28;20051;-76
2023/10/04 09:47:46;;;;;;;16.13;3.42;;;15.20;99.90;;;;;;5067732;28;20081;-75
2023/10/04 09:50:24;;;;;;;14.50;2.47;;;15.30;99.90;;;;;;5050191;28;20071;-75
2023/10/04 09:52:53;;;;;;;10.05;2.63;;;15.40;99.90;;;;;;5068560;28;20009;-75
2023/10/04 09:55:22;;;;;;;7.60;2.97;;;15.40;99.90;;;;;;5066910;28;20025;-75
2023/10/04 09:57:49;;;;;;;19.02;2.88;;;15.50;99.90;;;;;;5063920;28;20060;-75
2023/10/04 10:00:17;;;;;;;12.25;2.88;;;15.60;99.90;;;;;;5066429;28;20017;-75
2023/10/04 10:02:53;;;;;;;14.70;2.75;;;15.60;99.90;;;;;;5053644;28;20037;-76
2023/10/04 10:05:28;;;;;;;11.40;3.40;;;15.70;99.90;;;;;;5067137;28;20018;-75
2023/10/04 10:07:55;;;;;;;13.68;3.03;;;15.80;99.90;;;;;;5052579;28;21035;-76
2023/10/04 10:10:25;;;;;;;17.60;2.95;;;15.90;99.90;;;;;;5046608;28;20055;-76
2023/10/04 10:12:51;;;;;;;10.75;3.10;;;15.90;99.90;;;;;;5047695;28;20021;-75
2023/10/04 10:15:21;;;;;;;9.82;2.65;;;15.90;99.90;;;;;;5057357;28;20063;-76
2023/10/04 10:17:47;;;;;;;8.27;2.63;;;15.90;99.90;;;;;;5066466;28;20089;-77
2023/10/04 10:20:16;;;;;;;11.43;3.05;;;15.90;99.90;;;;;;5067391;28;20013;-75
2023/10/04 10:23:00;;;;;;;10.55;2.83;;;15.90;99.90;;;;;;5059799;28;20093;-77
2023/10/04 10:25:27;;;;;;;14.65;2.78;;;15.90;99.90;;;;;;5044240;28;20025;-76
2023/10/04 10:28:02;;;;;;;10.82;2.30;;;16.00;99.90;;;;;;5064457;28;20021;-76
2023/10/04 10:30:31;;;;;;;8.85;2.60;;;16.00;99.90;;;;;;5051186;28;20044;-74
2023/10/04 10:32:59;;;;;;;13.82;3.95;;;16.00;99.90;;;;;;5065487;28;20021;-75
2023/10/04 10:35:46;;;;;;;9.80;2.15;;;16.10;99.90;;;;;;5065871;28;20021;-75
2023/10/04 10:38:39;;;;;;;11.73;3.00;;;16.20;99.90;;;;;;5066489;28;20028;-75
2023/10/04 10:41:28;;;;;;;11.57;2.75;;;16.20;99.90;;;;;;5065284;28;20113;-75
2023/10/04 10:44:13;;;;;;;16.10;3.47;;;16.30;99.90;;;;;;5047443;28;20032;-76
2023/10/04 10:47:08;;;;;;;12.57;3.08;;;16.40;99.90;;;;;;5061567;28;20036;-77
2023/10/04 10:49:36;;;;;;;14.80;2.92;;;16.40;99.90;;;;;;5047464;28;20037;-76
2023/10/04 10:52:02;;;;;;;12.40;2.85;;;16.40;99.90;;;;;;5049235;28;20063;-75
2023/10/04 10:54:28;;;;;;;9.10;2.00;;;16.40;99.90;;;;;;5046982;28;20036;-75
2023/10/04 10:56:54;;;;;;;10.73;3.25;;;16.50;99.90;;;;;;5045143;28;20025;-76
2023/10/04 10:59:20;;;;;;;11.10;2.72;;;16.60;99.90;;;;;;5065494;28;20041;-75
2023/10/04 11:01:50;;;;;;;9.68;2.67;;;16.70;99.90;;;;;;5050524;28;20229;-76
2023/10/04 11:04:16;;;;;;;11.50;2.60;;;16.70;99.90;;;;;;5065920;28;20020;-75
2023/10/04 11:06:43;;;;;;;14.65;3.28;;;16.70;99.90;;;;;;5051397;28;20143;-76
2023/10/04 11:09:09;;;;;;;12.02;3.65;;;16.70;99.90;;;;;;5048178;28;20093;-75
2023/10/04 11:11:34;;;;;;;10.07;2.67;;;16.80;99.90;;;;;;5065634;28;20021;-75
2023/10/04 11:14:06;;;;;;;16.63;2.90;;;16.80;99.90;;;;;;5065194;28;20081;-77
2023/10/04 11:16:34;;;;;;;11.43;2.83;;;16.90;99.90;;;;;;5064244;28;20021;-77
2023/10/04 11:19:01;;;;;;;11.55;3.33;;;16.90;99.90;;;;;;5042976;28;20076;-79
2023/10/04 11:21:27;;;;;;;13.50;3.50;;;17.00;99.90;;;;;;5059767;28;20029;-77
2023/10/04 11:23:55;;;;;;;9.43;4.05;;;17.00;99.90;;;;;;5046465;28;20093;-79
2023/10/04 11:26:24;;;;;;;9.20;2.75;;;17.00;99.90;;;;;;5046045;28;20009;-78
2023/10/04 11:28:53;;;;;;;8.90;3.30;;;17.10;99.90;;;;;;5048170;28;20013;-77
2023/10/04 11:31:26;;;;;;;13.27;3.50;;;17.10;99.90;;;;;;5050467;28;20056;-75
2023/10/04 11:33:59;;;;;;;10.48;3.35;;;17.10;99.90;;;;;;5070206;28;20021;-74
2023/10/04 11:36:27;;;;;;;;;;;17.20;99.90;;;;;;5071045;28;20013;-74
2023/10/04 11:38:58;;;;;;;15.90;3.47;;;17.10;99.90;;;;;;5052988;28;19948;-74
2023/10/04 11:41:29;;;;;;;8.65;2.92;;;17.20;99.90;;;;;;5071179;28;20075;-74
2023/10/04 11:44:02;;;;;;;11.57;4.03;;;17.10;99.90;;;;;;5052591;28;20018;-74
2023/10/04 11:46:29;;;;;;;11.93;3.75;;;17.20;99.90;;;;;;5068286;28;20025;-74
2023/10/04 11:49:13;;;;;;;10.00;3.58;;;17.10;99.90;;;;;;5051432;28;20084;-74
2023/10/04 11:51:41;;;;;;;13.18;3.65;;;17.10;99.90;;;;;;5049395;28;20104;-74
2023/10/04 11:54:09;;;;;;;9.38;3.30;;;17.00;99.90;;;;;;5051071;28;20121;-74
2023/10/04 11:56:41;;;;;;;9.95;3.97;;;17.00;99.90;;;;;;5050715;28;20052;-74
2023/10/04 11:59:07;;;;;;;10.68;4.40;;;17.00;99.90;;;;;;5067647;28;20125;-74
2023/10/04 12:01:44;;;;;;;15.02;4.55;;;17.00;99.90;;;;;;5069616;28;20219;-75
2023/10/04 12:04:11;;;;;;;16.00;3.75;;;17.10;99.90;;;;;;5068126;28;20017;-73
2023/10/04 12:06:37;;;;;;;10.38;4.43;;;17.20;99.90;;;;;;5069772;28;20029;-74
2023/10/04 12:09:06;;;;;;;11.88;4.65;;;17.20;99.90;;;;;;5052856;28;20036;-74
2023/10/04 12:11:35;;;;;;;12.50;4.97;;;17.20;99.90;;;;;;5066877;28;20112;-74
2023/10/04 12:14:04;;;;;;;15.65;3.88;;;17.30;99.90;;;;;;5051344;28;20059;-74
2023/10/04 12:16:32;;;;;;;13.68;4.85;;;17.30;99.90;;;;;;5068921;28;20214;-74
2023/10/04 12:19:01;;;;;;;12.75;4.35;;;17.30;99.90;;;;;;5068870;28;20029;-74
2023/10/04 12:21:31;;;;;;;11.77;4.05;;;17.30;99.90;;;;;;5068842;28;20028;-74
2023/10/04 12:23:59;;;;;;;12.73;4.03;;;17.30;99.90;;;;;;5066969;28;20029;-73
2023/10/04 12:26:26;;;;;;;13.02;4.43;;;17.40;99.90;;;;;;5069959;28;20085;-74
2023/10/04 12:28:51;;;;;;;15.57;4.65;;;17.50;99.90;;;;;;5067947;28;20013;-74
2023/10/04 12:31:17;;;;;;;14.23;4.32;;;17.50;99.90;;;;;;5052890;28;20051;-73
2023/10/04 12:33:46;;;;;;;13.98;4.88;;;17.50;99.90;;;;;;5067872;28;20033;-75
2023/10/04 12:36:12;;;;;;;12.20;3.92;;;17.40;99.90;;;;;;5051466;28;20051;-74
2023/10/04 12:38:41;;;;;;;14.52;4.63;;;17.30;99.90;;;;;;5069885;28;20463;-74
2023/10/04 12:41:09;;;;;;;14.32;4.85;;;17.40;99.90;;;;;;5067953;28;20028;-74
2023/10/04 12:43:37;;;;;;;12.90;5.18;;;17.40;99.90;;;;;;5058756;28;20108;-74
2023/10/04 12:46:03;;;;;;;13.02;4.40;;;17.50;99.90;;;;;;5068772;28;20017;-74
2023/10/04 12:48:31;;;;;;;11.75;4.43;;;17.50;99.90;;;;;;5069042;28;20051;-74
2023/10/04 12:50:56;;;;;;;15.38;5.03;;;17.60;99.90;;;;;;5054270;28;20046;-75